Time;durP1;ratioP1;P1;durP2;ratioP2;P2;SDS_P1;SDS_P2;PMS_P1;PMS_P2;Temp;Humidity;BMP_temperature;BMP_pressure;BME280_temperature;BME280_humidity;BME280_pressure;Samples;Min_cycle;Max_cycle;Signal;HPM_P1;HPM_P2
2022/05/04 00:01:11;;;;;;;10.83;3.70;;;;;;;6.05;83.58;101245.63;5980997;28;20042;-68
2022/05/04 00:04:07;;;;;;;13.27;4.03;;;;;;;6.11;83.71;101249.63;5988947;28;20040;-69
2022/05/04 00:07:02;;;;;;;10.03;3.67;;;;;;;6.20;83.99;101243.72;5981640;28;20027;-69
2022/05/04 00:09:58;;;;;;;8.97;3.77;;;;;;;6.58;83.01;101244.53;5988280;28;20031;-67
2022/05/04 00:12:53;;;;;;;8.15;3.35;;;;;;;6.73;80.47;101248.75;5981179;28;20285;-69
2022/05/04 00:15:48;;;;;;;8.37;3.03;;;;;;;6.62;81.36;101245.19;5981124;28;20042;-67
2022/05/04 00:18:44;;;;;;;8.07;3.27;;;;;;;6.55;82.32;101250.03;5986395;28;20506;-68
2022/05/04 00:21:39;;;;;;;6.73;3.13;;;;;;;6.53;80.87;101246.66;5986342;28;20050;-67
2022/05/04 00:24:34;;;;;;;8.60;3.10;;;;;;;7.46;80.81;101248.72;5979627;28;20042;-68
2022/05/04 00:27:29;;;;;;;7.05;4.13;;;;;;;7.87;76.64;101243.84;5978764;28;20415;-67
2022/05/04 00:30:25;;;;;;;10.23;3.03;;;;;;;7.33;77.19;101247.94;5979047;28;20086;-67
2022/05/04 00:33:20;;;;;;;12.70;3.53;;;;;;;6.89;78.97;101256.41;5981583;28;20054;-68
2022/05/04 00:36:16;;;;;;;8.18;3.03;;;;;;;6.66;80.17;101252.75;5990024;28;20032;-68
2022/05/04 00:39:11;;;;;;;7.97;3.07;;;;;;;6.33;81.51;101249.84;5979510;28;20043;-69
2022/05/04 00:42:06;;;;;;;8.73;3.03;;;;;;;6.32;81.66;101256.06;5985245;28;20526;-69
2022/05/04 00:45:02;;;;;;;6.45;2.80;;;;;;;6.31;82.67;101246.47;5981999;28;20709;-68
2022/05/04 00:47:57;;;;;;;9.77;3.28;;;;;;;6.58;81.41;101249.81;5979057;28;20042;-67
2022/05/04 00:50:53;;;;;;;11.63;3.03;;;;;;;6.39;81.17;101238.88;5982201;28;20086;-68
2022/05/04 00:53:48;;;;;;;9.65;2.63;;;;;;;6.10;81.59;101254.06;5974855;28;20394;-69
2022/05/04 00:56:44;;;;;;;9.60;3.78;;;;;;;5.80;83.48;101241.13;5987039;28;20031;-67
2022/05/04 00:59:39;;;;;;;12.73;3.55;;;;;;;5.64;84.12;101245.72;5979029;28;20038;-68
2022/05/04 01:02:37;;;;;;;5.97;3.22;;;;;;;5.57;84.83;101254.13;5977402;28;20447;-69
2022/05/04 01:05:33;;;;;;;7.32;3.30;;;;;;;5.63;84.94;101251.09;5978879;28;20035;-68
2022/05/04 01:08:28;;;;;;;5.93;3.10;;;;;;;6.79;83.27;101250.13;5980094;28;20086;-69
2022/05/04 01:11:23;;;;;;;11.40;3.53;;;;;;;6.70;80.53;101248.97;5978374;28;20471;-66
2022/05/04 01:14:19;;;;;;;6.53;3.27;;;;;;;6.11;80.77;101252.25;5986447;28;20047;-69
2022/05/04 01:17:14;;;;;;;8.37;3.50;;;;;;;5.66;82.93;101253.50;5979935;28;20082;-67
2022/05/04 01:20:10;;;;;;;12.03;3.43;;;;;;;5.31;84.66;101255.81;5988196;28;20043;-69
2022/05/04 01:23:05;;;;;;;15.20;4.72;;;;;;;5.69;84.76;101248.91;5971548;28;20326;-68
2022/05/04 01:26:00;;;;;;;13.37;3.57;;;;;;;5.41;84.39;101256.91;5978635;28;20058;-68
2022/05/04 01:28:56;;;;;;;9.17;4.13;;;;;;;5.09;85.20;101256.34;5981856;28;20029;-68
2022/05/04 01:31:51;;;;;;;8.85;3.65;;;;;;;4.93;86.14;101260.06;5981675;28;20043;-66
2022/05/04 01:34:46;;;;;;;12.53;4.23;;;;;;;4.81;86.95;101256.41;5978789;28;20043;-67
2022/05/04 01:37:42;;;;;;;9.60;3.50;;;;;;;5.04;87.67;101262.84;5982507;28;20044;-69
2022/05/04 01:40:37;;;;;;;9.50;4.13;;;;;;;4.95;87.22;101271.31;5982906;28;20031;-68
2022/05/04 01:43:32;;;;;;;13.33;3.97;;;;;;;4.83;87.33;101262.44;5987639;28;20666;-67
2022/05/04 01:46:27;;;;;;;13.73;4.33;;;;;;;4.88;87.27;101270.84;5990923;28;20039;-66
2022/05/04 01:49:23;;;;;;;8.33;3.80;;;;;;;4.86;87.03;101266.66;5993674;28;20066;-67
2022/05/04 01:52:18;;;;;;;8.03;3.73;;;;;;;4.81;87.50;101267.75;5981926;28;20042;-67
2022/05/04 01:55:14;;;;;;;9.47;3.97;;;;;;;4.81;87.57;101257.25;5982305;28;20035;-67
2022/05/04 01:58:11;;;;;;;10.48;3.90;;;;;;;4.81;87.46;101269.53;5995668;28;20043;-66
2022/05/04 02:01:07;;;;;;;10.68;4.00;;;;;;;4.79;87.26;101267.00;5997782;28;20046;-67
2022/05/04 02:04:02;;;;;;;10.00;3.40;;;;;;;4.68;87.36;101258.97;5982853;28;20427;-66
2022/05/04 02:06:58;;;;;;;13.15;4.43;;;;;;;4.51;87.56;101261.78;5974437;28;20102;-67
2022/05/04 02:09:54;;;;;;;11.47;3.53;;;;;;;4.49;87.80;101266.28;5980561;28;20167;-66
2022/05/04 02:12:49;;;;;;;9.88;3.72;;;;;;;4.35;87.99;101261.03;5986177;28;20313;-67
2022/05/04 02:15:44;;;;;;;10.80;3.90;;;;;;;4.23;88.46;101261.78;5989360;28;20122;-67
2022/05/04 02:18:40;;;;;;;8.73;3.80;;;;;;;4.13;88.70;101261.47;5982506;28;20046;-69
2022/05/04 02:21:35;;;;;;;11.73;4.17;;;;;;;4.13;89.25;101260.66;5981554;28;20079;-66
2022/05/04 02:24:30;;;;;;;14.83;4.07;;;;;;;4.04;89.37;101261.19;5986667;28;20338;-66
2022/05/04 02:27:26;;;;;;;8.03;4.50;;;;;;;3.94;89.70;101253.00;5984089;28;20058;-69
2022/05/04 02:30:21;;;;;;;8.87;3.30;;;;;;;3.91;90.65;101265.47;5987647;28;20485;-67
2022/05/04 02:33:16;;;;;;;12.57;3.97;;;;;;;3.90;90.38;101259.38;5981910;28;20398;-66
2022/05/04 02:39:25;;;;;;;;;;;;;;;4.07;90.58;101261.00;5984687;28;20031;-68
2022/05/04 02:42:21;;;;;;;10.57;4.37;;;;;;;4.23;90.39;101261.78;5981300;28;19910;-68
2022/05/04 02:45:17;;;;;;;13.27;4.55;;;;;;;4.50;89.75;101246.97;5988261;28;20046;-69
2022/05/04 02:48:12;;;;;;;10.33;3.63;;;;;;;4.46;88.72;101255.97;5982662;28;20047;-68
2022/05/04 02:51:08;;;;;;;6.57;3.10;;;;;;;4.28;88.35;101254.47;5980512;28;20035;-68
2022/05/04 02:54:03;;;;;;;13.30;4.60;;;;;;;4.30;88.41;101257.84;5993654;28;20271;-67
2022/05/04 02:56:59;;;;;;;7.20;3.70;;;;;;;4.32;88.06;101260.38;5982544;28;20039;-69
2022/05/04 02:59:54;;;;;;;9.83;3.30;;;;;;;4.21;88.02;101259.22;5985752;28;20089;-67
2022/05/04 03:02:49;;;;;;;10.53;3.70;;;;;;;4.16;88.14;101253.41;5980786;28;20566;-68
2022/05/04 03:05:44;;;;;;;12.40;4.03;;;;;;;4.28;88.36;101264.13;5983507;28;20047;-68
2022/05/04 03:08:40;;;;;;;8.87;3.40;;;;;;;4.37;88.06;101251.28;5983956;28;20126;-67
2022/05/04 03:11:54;;;;;;;13.07;3.13;;;;;;;4.63;87.21;101253.16;5980443;28;20031;-68
2022/05/04 03:14:50;;;;;;;17.50;3.67;;;;;;;5.72;86.84;101243.44;5980963;28;20112;-67
2022/05/04 03:17:45;;;;;;;11.55;4.03;;;;;;;5.72;83.74;101248.69;5980774;28;20027;-66
2022/05/04 03:20:40;;;;;;;8.03;2.97;;;;;;;5.05;82.49;101252.25;5985649;28;20043;-66
2022/05/04 03:23:35;;;;;;;11.73;3.63;;;;;;;4.60;84.08;101250.72;5983997;28;20043;-69
2022/05/04 03:26:31;;;;;;;12.87;3.43;;;;;;;5.43;84.73;101241.91;5980537;28;20043;-68
2022/05/04 03:29:26;;;;;;;9.88;3.20;;;;;;;5.27;83.66;101246.47;5980879;28;20054;-68
2022/05/04 03:32:21;;;;;;;10.13;3.60;;;;;;;4.64;83.54;101252.22;5979940;28;20071;-68
2022/05/04 03:35:17;;;;;;;17.13;5.97;;;;;;;4.26;84.81;101243.22;5987649;28;20042;-67
2022/05/04 03:38:12;;;;;;;9.97;4.37;;;;;;;4.20;85.19;101256.72;5983264;28;20553;-68
2022/05/04 03:41:07;;;;;;;8.93;3.17;;;;;;;3.91;86.20;101247.09;5979805;28;20043;-69
2022/05/04 03:44:03;;;;;;;13.10;3.70;;;;;;;3.71;86.38;101255.28;5980247;28;20045;-68
2022/05/04 03:46:58;;;;;;;9.20;3.63;;;;;;;3.76;88.64;101259.34;5980423;28;20898;-66
2022/05/04 03:49:53;;;;;;;8.13;3.77;;;;;;;4.13;89.26;101256.22;5980282;28;20050;-69
2022/05/04 03:52:49;;;;;;;12.77;3.67;;;;;;;4.61;87.51;101257.66;5980182;28;20035;-69
2022/05/04 03:55:44;;;;;;;8.00;3.07;;;;;;;4.43;85.79;101250.91;5979827;28;20380;-66
2022/05/04 03:58:40;;;;;;;10.57;3.50;;;;;;;4.06;85.74;101251.44;5985896;28;20045;-66
2022/05/04 04:01:36;;;;;;;9.20;3.92;;;;;;;3.94;86.39;101249.56;5978746;28;20542;-67
2022/05/04 04:04:31;;;;;;;12.80;4.05;;;;;;;4.00;87.36;101251.78;5979786;28;20027;-66
2022/05/04 04:07:27;;;;;;;6.60;3.20;;;;;;;3.95;87.38;101251.22;5982420;28;20109;-68
2022/05/04 04:10:22;;;;;;;11.05;4.20;;;;;;;3.94;88.15;101260.88;5986834;28;20039;-69
2022/05/04 04:13:17;;;;;;;8.00;3.20;;;;;;;5.18;86.99;101247.03;5980014;28;20039;-66
2022/05/04 04:16:13;;;;;;;7.73;3.80;;;;;;;5.55;85.08;101256.00;5979869;28;20164;-67
2022/05/04 04:19:09;;;;;;;10.57;3.53;;;;;;;5.58;83.30;101259.28;5980607;28;20042;-67
2022/05/04 04:22:04;;;;;;;9.43;3.72;;;;;;;5.30;83.88;101256.75;5982548;28;20067;-69
2022/05/04 04:24:59;;;;;;;9.48;4.18;;;;;;;6.06;83.86;101257.00;5980749;28;20490;-66
2022/05/04 04:27:55;;;;;;;8.70;3.63;;;;;;;5.41;82.71;101264.78;5979614;28;20035;-67
2022/05/04 04:30:50;;;;;;;7.20;3.60;;;;;;;5.32;83.06;101270.66;5981748;28;20034;-68
2022/05/04 04:33:45;;;;;;;10.47;3.17;;;;;;;5.26;83.74;101265.78;5992658;28;20563;-67
2022/05/04 04:36:42;;;;;;;8.20;3.30;;;;;;;5.49;83.38;101278.28;5980789;28;20035;-69
2022/05/04 04:39:38;;;;;;;13.95;3.95;;;;;;;5.43;82.50;101273.44;5979219;28;20491;-69
2022/05/04 04:42:33;;;;;;;6.63;3.53;;;;;;;5.43;83.03;101278.72;5980592;28;20090;-67
2022/05/04 04:45:29;;;;;;;8.70;2.70;;;;;;;5.50;82.33;101280.00;5986137;28;20062;-67
2022/05/04 04:48:24;;;;;;;9.35;2.88;;;;;;;6.14;84.06;101273.13;5979197;28;20047;-68
2022/05/04 04:51:20;;;;;;;9.40;3.40;;;;;;;6.53;78.77;101273.00;5978720;28;20131;-68
2022/05/04 04:54:15;;;;;;;7.78;3.15;;;;;;;6.26;78.85;101281.03;5981008;28;20043;-67
2022/05/04 04:57:10;;;;;;;9.10;3.27;;;;;;;6.46;79.35;101280.50;5979126;28;20054;-67
2022/05/04 05:00:06;;;;;;;12.53;3.30;;;;;;;7.28;77.77;101279.94;5975884;28;20031;-67
2022/05/04 05:03:02;;;;;;;8.05;2.78;;;;;;;7.27;76.62;101270.31;5975478;28;20034;-67
2022/05/04 05:05:57;;;;;;;7.00;3.40;;;;;;;7.60;76.22;101270.50;5980911;28;20166;-67
2022/05/04 05:08:53;;;;;;;11.13;2.73;;;;;;;8.37;71.86;101259.31;5980236;28;20047;-67
2022/05/04 05:11:49;;;;;;;6.40;2.50;;;;;;;8.80;69.96;101261.28;5978578;28;20066;-69
2022/05/04 05:17:58;;;;;;;9.68;2.38;;;;;;;8.45;69.14;101255.25;5983114;29;20035;-67
2022/05/04 05:20:53;;;;;;;15.17;3.43;;;;;;;8.16;69.40;101260.94;5982920;28;20035;-66
2022/05/04 05:23:48;;;;;;;6.05;2.72;;;;;;;8.49;68.96;101264.63;5983060;28;20031;-68
2022/05/04 05:26:44;;;;;;;8.87;2.40;;;;;;;9.26;66.96;101258.44;5983410;28;20566;-66
2022/05/04 05:29:39;;;;;;;7.30;2.60;;;;;;;8.57;67.14;101264.88;5983283;28;20549;-68
2022/05/04 05:32:34;;;;;;;9.03;2.50;;;;;;;9.16;65.38;101262.81;5982421;28;20039;-68
2022/05/04 05:35:30;;;;;;;9.85;2.88;;;;;;;9.49;65.27;101271.47;5991448;28;20041;-68
2022/05/04 05:38:28;;;;;;;6.37;2.20;;;;;;;9.85;63.61;101266.75;5982857;28;20039;-68
2022/05/04 05:41:23;;;;;;;6.70;1.88;;;;;;;10.63;61.67;101262.66;5982451;28;20106;-69
2022/05/04 05:44:19;;;;;;;9.00;2.22;;;;;;;9.50;63.83;101273.16;5982824;28;20479;-68
2022/05/04 05:47:14;;;;;;;9.90;2.13;;;;;;;10.04;65.04;101261.59;5980451;28;20039;-67
2022/05/04 05:50:11;;;;;;;13.50;2.63;;;;;;;10.18;63.16;101258.66;5980045;28;20033;-68
2022/05/04 05:53:06;;;;;;;4.40;1.85;;;;;;;10.86;61.36;101265.13;5971423;28;20043;-68
2022/05/04 05:56:01;;;;;;;7.63;2.20;;;;;;;11.47;59.88;101253.38;5982135;28;20031;-68
2022/05/04 05:58:56;;;;;;;7.93;2.70;;;;;;;10.88;59.80;101255.22;5981977;28;20066;-67
2022/05/04 06:01:52;;;;;;;9.83;2.20;;;;;;;11.38;60.19;101246.28;5981933;28;20031;-68
2022/05/04 06:04:48;;;;;;;8.00;2.20;;;;;;;10.83;59.77;101252.13;5988068;28;20522;-68
2022/05/04 06:07:44;;;;;;;9.20;2.22;;;;;;;11.06;59.68;101261.59;5974092;28;20034;-67
2022/05/04 06:10:39;;;;;;;14.90;3.17;;;;;;;10.76;60.51;101255.31;5981737;29;20039;-68
2022/05/04 06:13:35;;;;;;;9.52;2.70;;;;;;;11.23;59.08;101260.91;5981825;28;20104;-66
2022/05/04 06:16:30;;;;;;;8.87;2.33;;;;;;;11.98;57.88;101260.28;5981451;28;20046;-67
2022/05/04 06:19:25;;;;;;;12.90;2.47;;;;;;;10.84;59.21;101262.63;5981559;28;20114;-67
2022/05/04 06:22:20;;;;;;;6.43;2.20;;;;;;;11.50;59.65;101263.75;5980209;28;20058;-67
2022/05/04 06:25:16;;;;;;;8.73;2.50;;;;;;;11.12;59.97;101250.41;5979676;28;20075;-66
2022/05/04 06:28:12;;;;;;;7.32;2.30;;;;;;;11.98;56.69;101254.97;5981747;28;20050;-68
2022/05/04 06:34:22;;;;;;;13.88;2.47;;;;;;;11.42;58.86;101258.28;5981468;28;20035;-69
2022/05/04 06:37:17;;;;;;;9.05;2.33;;;;;;;11.80;57.21;101255.66;5981568;28;20473;-68
2022/05/04 06:40:12;;;;;;;11.93;2.47;;;;;;;12.49;56.85;101271.38;5980483;28;20039;-69
2022/05/04 06:43:08;;;;;;;8.83;2.50;;;;;;;12.94;55.43;101266.97;5984578;28;20039;-68
2022/05/04 06:46:03;;;;;;;7.68;2.10;;;;;;;13.22;54.07;101259.03;5982051;28;20023;-66
2022/05/04 06:48:59;;;;;;;8.87;2.03;;;;;;;12.85;55.12;101256.41;5981189;28;20027;-69
2022/05/04 06:51:54;;;;;;;9.63;2.17;;;;;;;13.64;53.00;101260.94;5989947;28;20500;-65
2022/05/04 06:54:49;;;;;;;8.43;2.20;;;;;;;12.58;53.98;101270.53;5980631;28;20031;-68
2022/05/04 06:57:45;;;;;;;6.77;2.40;;;;;;;11.26;59.08;101257.97;5983747;28;20038;-68
2022/05/04 07:00:40;;;;;;;4.78;1.88;;;;;;;11.08;60.67;101264.94;5980590;28;20067;-67
2022/05/04 07:03:36;;;;;;;9.85;2.35;;;;;;;11.86;58.38;101265.75;5982116;28;20046;-66
2022/05/04 07:06:31;;;;;;;6.20;2.08;;;;;;;11.81;57.56;101259.19;5980816;28;20031;-68
2022/05/04 07:09:26;;;;;;;8.93;2.13;;;;;;;11.71;58.38;101253.84;5983401;28;20046;-68
2022/05/04 07:12:22;;;;;;;7.67;1.93;;;;;;;12.23;57.02;101263.16;5993058;28;20039;-67
2022/05/04 07:15:17;;;;;;;4.97;2.03;;;;;;;12.40;55.63;101262.44;5983919;28;20384;-67
2022/05/04 07:18:12;;;;;;;11.20;2.25;;;;;;;12.69;55.73;101259.66;5980728;28;20419;-68
2022/05/04 07:21:08;;;;;;;7.33;2.40;;;;;;;12.50;54.58;101254.44;5985950;28;20110;-68
2022/05/04 07:24:04;;;;;;;8.23;2.33;;;;;;;12.46;54.93;101261.03;5981799;28;20027;-67
2022/05/04 07:26:59;;;;;;;8.40;2.70;;;;;;;12.10;55.06;101267.97;5987530;28;20478;-68
2022/05/04 07:29:54;;;;;;;7.80;2.67;;;;;;;11.49;57.36;101263.91;5982321;28;20035;-67
2022/05/04 07:32:49;;;;;;;5.70;2.10;;;;;;;11.78;56.71;101275.41;5978727;28;20042;-68
2022/05/04 07:35:45;;;;;;;8.33;2.83;;;;;;;11.56;57.45;101263.19;5981095;28;20035;-67
2022/05/04 07:38:40;;;;;;;13.23;2.63;;;;;;;11.78;57.01;101264.78;5981076;28;20030;-68
2022/05/04 07:44:59;;;;;;;8.38;2.50;;;;;;;12.49;54.65;101248.28;5984326;28;20031;-68
2022/05/04 07:47:55;;;;;;;10.02;2.83;;;;;;;12.17;56.03;101260.25;5987012;28;20043;-66
2022/05/04 07:50:50;;;;;;;6.90;2.03;;;;;;;12.50;55.19;101273.06;5983416;28;20038;-67
2022/05/04 07:53:45;;;;;;;7.83;2.37;;;;;;;12.95;54.61;101252.69;5995655;28;20575;-67
2022/05/04 07:56:41;;;;;;;9.23;2.60;;;;;;;12.75;54.08;101261.75;5984926;28;20282;-69
2022/05/04 07:59:36;;;;;;;7.70;2.47;;;;;;;12.69;54.44;101259.66;5969605;28;20024;-67
2022/05/04 08:05:46;;;;;;;5.78;2.72;;;;;;;12.79;55.09;101256.97;5980036;28;20028;-68
2022/05/04 08:08:41;;;;;;;11.27;2.60;;;;;;;13.23;52.93;101256.22;5980589;28;20031;-67
2022/05/04 08:11:37;;;;;;;8.30;2.87;;;;;;;12.60;54.74;101257.91;5979736;28;20110;-66
2022/05/04 08:14:33;;;;;;;6.25;2.30;;;;;;;12.98;54.17;101256.88;5983706;28;20030;-66
2022/05/04 08:17:28;;;;;;;8.65;2.15;;;;;;;13.08;53.50;101257.69;5984224;28;20106;-68
2022/05/04 08:20:24;;;;;;;6.57;2.60;;;;;;;12.94;54.50;101253.69;5983878;28;20565;-67
2022/05/04 08:23:20;;;;;;;8.75;2.50;;;;;;;13.34;53.46;101257.84;5981775;28;20039;-68
2022/05/04 08:26:15;;;;;;;9.50;2.17;;;;;;;13.63;52.83;101253.13;5982100;28;20047;-68
2022/05/04 08:29:11;;;;;;;7.75;2.50;;;;;;;13.95;51.61;101253.41;5979149;28;20398;-68
2022/05/04 08:32:06;;;;;;;5.53;2.45;;;;;;;13.65;51.31;101251.13;5978970;28;20059;-67
2022/05/04 08:35:02;;;;;;;8.95;2.92;;;;;;;14.21;50.90;101251.59;5985395;28;20066;-69
2022/05/04 08:37:57;;;;;;;5.85;2.05;;;;;;;14.30;51.42;101252.50;5977970;28;20031;-69
2022/05/04 08:40:55;;;;;;;8.20;3.47;;;;;;;14.73;49.84;101248.94;5987924;28;20026;-67
2022/05/04 08:43:50;;;;;;;11.05;3.15;;;;;;;13.36;53.53;101250.53;5979658;28;20699;-67
2022/05/04 08:46:46;;;;;;;6.93;2.75;;;;;;;13.52;52.67;101250.69;5989758;28;20046;-68
2022/05/04 08:49:41;;;;;;;9.32;3.58;;;;;;;13.85;51.94;101242.00;5986692;28;20046;-68
2022/05/04 08:52:40;;;;;;;11.07;3.20;;;;;;;13.97;51.84;101245.25;5981955;28;20027;-67
2022/05/04 08:55:39;;;;;;;5.95;2.28;;;;;;;14.23;51.26;101252.28;5987087;28;20101;-67
2022/05/04 08:58:37;;;;;;;15.68;4.40;;;;;;;14.26;51.01;101246.66;5985856;28;20035;-68
2022/05/04 09:01:34;;;;;;;6.68;2.60;;;;;;;14.17;52.17;101250.25;5983797;28;20035;-66
2022/05/04 09:04:31;;;;;;;6.63;2.42;;;;;;;15.13;49.72;101241.09;5980475;28;20633;-67
2022/05/04 09:07:28;;;;;;;11.70;3.55;;;;;;;14.90;49.83;101240.84;5984773;28;20114;-65
2022/05/04 09:10:32;;;;;;;10.00;2.88;;;;;;;15.04;49.48;101242.06;5979212;28;20035;-67
2022/05/04 09:13:27;;;;;;;10.30;3.03;;;;;;;14.99;49.71;101244.38;5982209;28;20042;-68
2022/05/04 09:16:29;;;;;;;7.23;2.83;;;;;;;14.87;49.80;101245.66;5983010;28;20031;-68
2022/05/04 09:19:25;;;;;;;8.85;2.75;;;;;;;14.36;51.69;101243.91;5979785;28;20035;-66
2022/05/04 09:22:23;;;;;;;5.90;2.97;;;;;;;15.24;49.76;101238.13;5982270;28;20402;-67
2022/05/04 09:25:19;;;;;;;9.20;2.72;;;;;;;15.22;49.17;101231.28;5982448;28;20031;-68
2022/05/04 09:28:15;;;;;;;10.80;3.10;;;;;;;14.72;50.01;101221.41;5981976;28;20472;-67
2022/05/04 09:31:10;;;;;;;9.55;2.90;;;;;;;14.74;50.48;101223.91;5987220;28;20031;-69
2022/05/04 09:34:09;;;;;;;5.03;2.60;;;;;;;14.89;51.43;101227.66;5989796;28;20134;-66
2022/05/04 09:47:20;;;;;;;8.75;3.00;;;;;;;15.92;48.31;101211.16;5982223;28;20042;-67
2022/05/04 09:50:17;;;;;;;11.38;2.92;;;;;;;16.03;48.90;101211.63;5985342;28;20035;-67
2022/05/04 09:53:14;;;;;;;9.32;2.60;;;;;;;15.19;49.86;101212.88;5992403;28;20478;-68
2022/05/04 09:56:09;;;;;;;9.43;3.03;;;;;;;16.07;49.20;101212.13;5979480;28;20050;-67
2022/05/04 09:59:05;;;;;;;10.10;3.00;;;;;;;16.20;49.28;101212.44;5981058;28;20047;-66
2022/05/04 10:02:03;;;;;;;8.90;3.28;;;;;;;16.16;48.72;101204.91;5982989;28;20333;-67
2022/05/04 10:05:00;;;;;;;8.38;2.70;;;;;;;16.88;47.71;101211.91;5982853;28;20031;-67
2022/05/04 10:07:56;;;;;;;9.23;2.78;;;;;;;16.58;47.05;101206.34;5993693;28;20034;-69
2022/05/04 10:10:54;;;;;;;8.35;3.13;;;;;;;16.73;47.26;101210.97;5985456;28;20035;-69
2022/05/04 10:13:53;;;;;;;9.30;3.08;;;;;;;17.07;48.40;101203.44;5982154;28;20467;-68
2022/05/04 10:17:12;;;;;;;12.55;3.40;;;;;;;17.26;47.01;101198.47;5990792;28;20503;-66
2022/05/04 10:20:12;;;;;;;9.90;3.40;;;;;;;17.25;46.58;101194.13;5981980;28;20039;-66
2022/05/04 10:23:14;;;;;;;9.90;3.30;;;;;;;17.31;46.74;101197.94;5982660;28;20031;-66
2022/05/04 10:26:12;;;;;;;10.55;3.47;;;;;;;17.53;45.13;101193.59;5977851;28;20115;-64
2022/05/04 10:32:45;;;;;;;10.55;3.25;;;;;;;18.15;46.28;101183.50;5981387;29;20043;-65
2022/05/04 10:35:41;;;;;;;;;;;;;;;17.96;44.31;101184.03;5982366;28;20039;-68
2022/05/04 10:38:38;;;;;;;10.50;2.95;;;;;;;17.88;44.43;101176.06;5982170;28;20380;-66
2022/05/04 10:41:35;;;;;;;7.13;3.53;;;;;;;17.09;46.67;101169.28;5984108;28;20035;-68
2022/05/04 10:44:52;;;;;;;9.45;3.10;;;;;;;17.75;45.40;101160.56;5982603;28;20047;-68
2022/05/04 10:47:48;;;;;;;9.10;3.58;;;;;;;17.71;44.95;101160.13;5990474;28;20035;-67
2022/05/04 10:50:57;;;;;;;10.45;3.15;;;;;;;18.26;45.01;101159.69;5982332;28;20090;-67
2022/05/04 10:53:58;;;;;;;7.95;3.30;;;;;;;18.47;43.32;101150.91;5981759;28;20475;-67
2022/05/04 10:56:54;;;;;;;7.50;3.38;;;;;;;18.36;43.56;101156.75;5981397;28;20494;-68
2022/05/04 11:00:02;;;;;;;6.20;3.47;;;;;;;18.54;43.84;101159.06;5981728;28;20035;-67
2022/05/04 11:02:57;;;;;;;9.65;3.42;;;;;;;18.58;44.28;101153.16;5984895;28;20039;-67
2022/05/04 11:05:54;;;;;;;7.33;3.20;;;;;;;18.68;44.19;101152.84;5984835;28;20549;-66
2022/05/04 11:08:50;;;;;;;10.85;3.75;;;;;;;18.57;44.40;101151.50;5983890;28;20032;-67
2022/05/04 11:11:50;;;;;;;8.45;3.40;;;;;;;18.12;43.79;101140.94;5981367;28;20170;-67
2022/05/04 11:14:45;;;;;;;10.10;3.75;;;;;;;18.32;44.72;101136.66;5988443;28;20518;-68
2022/05/04 11:17:42;;;;;;;9.70;4.27;;;;;;;18.39;43.31;101143.78;5982408;28;20031;-68
2022/05/04 11:20:37;;;;;;;8.27;3.75;;;;;;;18.81;42.90;101132.34;5990318;28;20481;-66
2022/05/04 11:23:32;;;;;;;8.10;3.77;;;;;;;18.47;43.45;101140.19;5988168;28;20043;-67
2022/05/04 11:26:44;;;;;;;6.63;3.57;;;;;;;18.63;43.27;101136.47;5982603;28;20094;-67
2022/05/04 11:29:39;;;;;;;7.90;3.83;;;;;;;18.59;43.99;101143.25;5980429;28;20318;-68
2022/05/04 11:32:34;;;;;;;7.50;3.70;;;;;;;18.84;44.84;101140.03;5986366;28;20050;-68
2022/05/04 11:35:30;;;;;;;10.38;4.53;;;;;;;18.94;42.61;101137.88;5983225;28;20106;-67
2022/05/04 11:38:25;;;;;;;9.77;4.10;;;;;;;18.53;44.20;101139.47;6000134;28;20045;-68
2022/05/04 11:41:21;;;;;;;11.90;4.20;;;;;;;18.66;43.89;101128.88;5985966;28;20289;-67
2022/05/04 11:44:21;;;;;;;8.73;4.07;;;;;;;18.54;43.81;101135.75;5988601;28;20115;-68
2022/05/04 11:47:18;;;;;;;9.00;3.80;;;;;;;18.19;44.43;101131.94;5986726;28;20074;-68
2022/05/04 11:50:14;;;;;;;9.85;3.67;;;;;;;18.96;43.83;101125.09;5986999;28;20087;-68
2022/05/04 11:53:09;;;;;;;9.93;3.40;;;;;;;19.75;41.59;101125.84;5981486;28;20104;-68
2022/05/04 11:56:05;;;;;;;8.23;3.50;;;;;;;19.81;41.13;101113.47;5981394;28;20043;-67
2022/05/04 11:59:01;;;;;;;7.95;3.33;;;;;;;20.45;39.90;101111.38;5984843;28;20118;-68
2022/05/04 12:01:58;;;;;;;11.80;3.90;;;;;;;20.56;40.35;101100.03;5982100;28;20028;-69
2022/05/04 12:04:53;;;;;;;10.18;4.05;;;;;;;20.34;40.58;101098.47;5988504;28;20038;-68
2022/05/04 12:07:49;;;;;;;11.27;4.00;;;;;;;19.83;42.07;101097.97;5981434;28;20046;-68
2022/05/04 12:10:45;;;;;;;7.37;3.73;;;;;;;19.91;41.50;101104.03;5979487;28;20452;-68
2022/05/04 12:13:41;;;;;;;8.55;3.72;;;;;;;20.31;41.97;101098.88;5990926;28;20290;-68
2022/05/04 12:16:38;;;;;;;8.55;3.70;;;;;;;19.61;42.86;101097.19;5984093;28;20039;-68
2022/05/04 12:19:34;;;;;;;9.40;3.88;;;;;;;19.58;42.65;101093.00;5990919;28;20050;-68
2022/05/04 12:22:29;;;;;;;9.98;4.20;;;;;;;19.65;41.82;101087.66;5978095;28;20043;-68
2022/05/04 12:25:25;;;;;;;8.48;4.03;;;;;;;19.97;40.90;101079.00;5980367;28;20081;-68
2022/05/04 12:28:21;;;;;;;11.80;4.15;;;;;;;20.24;40.56;101082.69;5980077;28;20031;-69
2022/05/04 12:34:31;;;;;;;9.63;4.13;;;;;;;20.48;40.07;101070.56;5977501;28;20031;-67
2022/05/04 12:37:33;;;;;;;9.43;4.10;;;;;;;20.89;39.46;101070.47;5990966;28;20039;-66
2022/05/04 12:40:28;;;;;;;7.75;3.85;;;;;;;20.64;40.57;101064.81;5984742;28;20399;-69
2022/05/04 12:43:24;;;;;;;10.35;3.70;;;;;;;20.68;40.01;101079.56;5982268;28;20047;-65
2022/05/04 12:46:20;;;;;;;8.57;4.20;;;;;;;20.26;40.21;101063.63;5983867;28;20038;-65
2022/05/04 12:49:18;;;;;;;8.63;3.77;;;;;;;20.40;40.81;101059.97;5978093;28;20141;-65
2022/05/04 12:52:13;;;;;;;11.40;4.18;;;;;;;19.79;41.60;101051.75;5977329;28;20691;-65
2022/05/04 12:55:08;;;;;;;10.02;4.60;;;;;;;19.58;42.17;101057.19;5983703;28;20059;-65
2022/05/04 12:58:04;;;;;;;9.47;3.60;;;;;;;19.63;42.66;101052.06;5978259;28;20562;-64
2022/05/04 13:00:59;;;;;;;8.60;4.20;;;;;;;19.81;42.51;101057.75;5978599;28;20039;-65
2022/05/04 13:03:54;;;;;;;9.32;4.10;;;;;;;20.12;42.03;101052.78;5985780;28;20086;-65
2022/05/04 13:06:50;;;;;;;11.63;4.37;;;;;;;20.46;40.04;101048.38;5980045;28;20093;-67
2022/05/04 13:09:45;;;;;;;7.70;4.20;;;;;;;19.95;41.65;101059.50;5983254;28;20581;-67
2022/05/04 13:12:41;;;;;;;9.10;4.80;;;;;;;20.11;40.29;101039.53;5989193;28;20101;-66
2022/05/04 13:15:37;;;;;;;10.83;4.07;;;;;;;19.87;42.33;101035.44;5980548;28;20477;-65
2022/05/04 13:18:32;;;;;;;12.05;4.50;;;;;;;19.64;42.03;101040.28;5980648;28;20410;-65
2022/05/04 13:21:28;;;;;;;14.10;4.57;;;;;;;19.49;42.28;101037.69;5979467;28;20035;-67
2022/05/04 13:24:23;;;;;;;8.60;3.80;;;;;;;19.39;42.90;101039.06;5977596;28;20118;-66
2022/05/04 13:27:19;;;;;;;10.80;3.77;;;;;;;19.71;42.24;101034.91;5978703;28;20507;-66
2022/05/04 13:30:14;;;;;;;7.97;4.33;;;;;;;19.53;42.53;101024.69;5976142;28;20040;-66
2022/05/04 13:33:10;;;;;;;9.13;4.60;;;;;;;19.24;42.95;101032.91;5979318;28;20038;-64
2022/05/04 13:36:05;;;;;;;8.88;3.90;;;;;;;19.59;43.00;101029.28;5985312;28;20533;-64
2022/05/04 13:39:00;;;;;;;9.37;3.67;;;;;;;19.47;43.63;101026.28;5992026;28;20485;-67
2022/05/04 13:41:56;;;;;;;8.50;4.30;;;;;;;19.42;42.15;101017.16;5984512;28;20294;-64
2022/05/04 13:44:51;;;;;;;8.85;4.10;;;;;;;19.45;42.56;101016.75;5999904;28;20477;-65
2022/05/04 13:47:47;;;;;;;12.13;4.00;;;;;;;19.76;42.09;101019.84;5985249;28;20031;-66
2022/05/04 13:53:56;;;;;;;8.45;4.07;;;;;;;19.16;43.21;101016.91;5995219;28;20369;-67
2022/05/04 13:56:52;;;;;;;9.15;3.85;;;;;;;19.25;43.17;101013.03;5983340;28;20507;-66
2022/05/04 13:59:47;;;;;;;9.73;3.43;;;;;;;19.05;43.69;101020.13;5987756;28;20039;-66
2022/05/04 14:02:42;;;;;;;7.55;3.88;;;;;;;19.08;43.15;101014.38;5988228;28;20061;-66
2022/05/04 14:05:38;;;;;;;12.50;3.67;;;;;;;19.24;43.59;101025.66;5984732;28;20510;-65
2022/05/04 14:08:34;;;;;;;9.23;3.95;;;;;;;20.36;40.76;101016.44;5985681;28;20113;-66
2022/05/04 14:11:29;;;;;;;10.38;3.90;;;;;;;20.61;39.76;101024.78;5976629;28;20031;-66
2022/05/04 14:17:39;;;;;;;7.90;3.83;;;;;;;19.77;42.71;101012.59;5990535;28;20039;-66
2022/05/04 14:20:35;;;;;;;8.57;3.83;;;;;;;19.57;43.07;101009.78;5978437;28;20051;-67